Libertador General San Martin, Argentina
Current Conditions -  °F | °C
As of 11:00 AM on Wednesday 26 Nov 2014 (Local Time) from SASJ Reporting Station
Overcast Overcast  
Wind Chill: 20°   Ceiling: 1800
Heat Index: 20°   Visibility: 6mi
Dew Point: 17°   Wind: 3mph
Humidity: 83%   Direction: 180°S
Pressure: 30"   Gusts: NA
Location:  23.8°S, 64.8°W
Report Text: SASJ 261400Z 18003KT 9999 BKN018 OVC10020/17 Q1016
Loading
Personal Weather Stations






























Interactive Weather Map New forecast layout! Learn more

10-Day Weather Forecast

Advertisements
Track Severe Weather on mobile